Maersk Drummond — A8JF3 — position and weather

sailwx.info

Track history (hours):
 
Tides and Currents Weather Stations Pressure Air Temp Water Temp Dewpoint Dewpoint Depression Visibility Wind Speed Wind Dir Waves Ship Positions

Maersk Drummond

Last reported at 2017-Jun-09 04:45 UTC. Time now 2017-Jun-22 14:24 UTC.
Position N 31°18' E 121°47'.
Warning: this ship's position is 13 days out of date.

Length 294 m; draft 11.1 m.

Type: Ship (hazmat cat A). MMSI: 636091082.

Date/timePositionNaut miles runAvg speedWind from/ knotsBaromVisibWave heightAir tempDewpointWater temp
2017-Jun-09 04:45N 31°18' E 121°47'6 9.7
2017-Jun-09 04:07N 31°20' E 121°40'1 5.2
2017-Jun-09 04:00N 31°20' E 121°39'0 0.3
2017-Jun-09 03:10N 31°20' E 121°39'24 1.9
2017-Jun-08 14:11N 31°14' E 122°06'7 9.7
2017-Jun-08 13:28N 31°10' E 122°13'5 9.1
2017-Jun-08 12:54N 31°07' E 122°18'25 7.5
2017-Jun-08 09:36N 31°10' E 122°46'0 0.0
2017-Jun-08 09:27N 31°10' E 122°46'0 0.1
2017-Jun-08 08:48N 31°10' E 122°46'0 0.1
2017-Jun-08 08:18N 31°10' E 122°46'0 0.2
2017-Jun-08 07:57N 31°10' E 122°46'0 0.1
2017-Jun-08 07:18N 31°10' E 122°46'0 0.1
2017-Jun-08 05:51N 31°10' E 122°46'0 0.2
2017-Jun-08 05:30N 31°10' E 122°46'1 0.1
2017-Jun-07 14:35N 31°10' E 122°45'0 6.5
2017-Jun-07 14:30N 31°10' E 122°45'  
Track history (hours):
 
Tides and Currents Weather Stations Pressure Air Temp Water Temp Dewpoint Dewpoint Depression Visibility Wind Speed Wind Dir Waves Ship Positions

Maersk Drummond

Last reported at 2017-Jun-09 04:45 UTC. Time now 2017-Jun-22 14:24 UTC.
Position N 31°18' E 121°47'.
Warning: this ship's position is 13 days out of date.

Length 294 m; draft 11.1 m.

Type: Ship (hazmat cat A). MMSI: 636091082.

Date/timePositionNaut miles runAvg speedWind from/ knotsBaromVisibWave heightAir tempDewpointWater temp
2017-Jun-09 04:45N 31°18' E 121°47'6 9.7
2017-Jun-09 04:07N 31°20' E 121°40'1 5.2
2017-Jun-09 04:00N 31°20' E 121°39'0 0.3
2017-Jun-09 03:10N 31°20' E 121°39'24 1.9
2017-Jun-08 14:11N 31°14' E 122°06'7 9.7
2017-Jun-08 13:28N 31°10' E 122°13'5 9.1
2017-Jun-08 12:54N 31°07' E 122°18'25 7.5
2017-Jun-08 09:36N 31°10' E 122°46'0 0.0
2017-Jun-08 09:27N 31°10' E 122°46'0 0.1
2017-Jun-08 08:48N 31°10' E 122°46'0 0.1
2017-Jun-08 08:18N 31°10' E 122°46'0 0.2
2017-Jun-08 07:57N 31°10' E 122°46'0 0.1
2017-Jun-08 07:18N 31°10' E 122°46'0 0.1
2017-Jun-08 05:51N 31°10' E 122°46'0 0.2
2017-Jun-08 05:30N 31°10' E 122°46'1 0.1
2017-Jun-07 14:35N 31°10' E 122°45'0 6.5
2017-Jun-07 14:30N 31°10' E 122°45'  

Dump ship's entire track history